Latest Weather Observations for Mandurah

IDW60801

Issued at 4:02 pm WST Wednesday 5 August 2015 (issued every 30 minutes, with the page automatically refreshed every 10 minutes)

About weather observations | Map of weather stations | Latest weather observations for WA | Other Formats
Station Details ID: 009977 Name: MANDURAH Lat: -32.52 Lon: 115.71 Height: 3.0 m
Data from the previous 72 hours. | See also: Recent months at Mandurah
Date/Time
WST
Temp
°C
App
Temp
°C
Dew
Point
Rel
Hum
%
Delta-T
°C
Wind Press
QNH
hPa
Press
MSL
hPa
Rain
since 9 am
mm
Dir
 
Spd
km/h
Gust
km/h
Spd
kts
Gust
kts
05/04:00pm 18.1 15.1 6.0 45 5.9 ENE 11 19 6 10 1025.7 1025.7 0.0
05/03:30pm 17.2 14.1 5.5 46 5.6 E 11 20 6 11 1026.0 1026.0 0.0
05/03:00pm 17.9 15.0 6.4 47 5.6 ENE 11 19 6 10 1026.1 1026.1 0.0
05/02:30pm 18.7 15.4 6.5 45 6.1 E 13 22 7 12 1026.2 1026.2 0.0
05/02:00pm 18.2 14.5 6.1 45 5.9 ENE 15 24 8 13 1026.4 1026.4 0.0
05/01:30pm 18.0 14.3 6.2 46 5.8 ENE 15 26 8 14 1026.7 1026.7 0.0
05/01:00pm 18.7 15.8 6.5 45 6.0 ENE 11 19 6 10 1027.3 1027.3 0.0
05/12:30pm 18.1 13.7 6.6 47 5.7 NE 19 26 10 14 1027.9 1027.9 0.0
05/12:00pm 18.4 15.3 7.2 48 5.6 ENE 13 20 7 11 1028.6 1028.6 0.0
05/11:30am 17.4 13.1 7.2 51 5.1 NE 19 28 10 15 1029.3 1029.3 0.0
05/11:00am 16.7 12.4 7.1 53 4.7 NE 19 32 10 17 1029.8 1029.8 0.0
05/10:30am 16.2 12.8 7.7 57 4.3 ENE 15 24 8 13 1030.2 1030.2 0.0
05/10:00am 15.4 13.3 8.4 63 3.5 ENE 9 15 5 8 1030.3 1030.3 0.0
05/09:30am 13.9 12.3 8.7 71 2.6 ENE 7 11 4 6 1030.3 1030.3 0.0
05/09:00am 12.7 9.9 8.6 76 2.0 E 13 20 7 11 1030.3 1030.3 0.0
05/08:30am 11.4 9.1 9.0 85 1.2 E 11 20 6 11 1030.2 1030.2 0.0
05/08:00am 10.4 8.6 9.3 93 0.5 ESE 9 20 5 11 1030.1 1030.1 0.0
05/07:30am 9.5 8.0 9.0 97 0.2 ESE 7 13 4 7 1030.0 1030.0 0.0
05/07:00am 9.1 7.5 8.8 98 0.1 ESE 7 9 4 5 1030.0 1030.0 0.0
05/06:30am 8.9 7.4 8.5 97 0.2 ESE 6 7 3 4 1029.9 1029.9 0.0
05/06:00am 9.1 7.6 8.6 97 0.2 E 6 13 3 7 1029.9 1029.9 0.0
05/05:30am 8.9 7.4 8.5 97 0.2 E 6 9 3 5 1029.8 1029.8 0.0
05/05:00am 8.9 7.3 8.1 95 0.4 ESE 6 7 3 4 1029.6 1029.6 0.0
05/04:30am 9.3 7.3 8.5 95 0.4 ESE 9 11 5 6 1029.5 1029.5 0.0
05/04:00am 9.5 7.5 8.7 95 0.4 SE 9 11 5 6 1029.4 1029.4 0.0
05/03:30am 9.2 7.7 8.3 94 0.4 SE 6 9 3 5 1029.6 1029.6 0.0
05/03:00am 9.3 7.5 7.9 91 0.7 SE 7 11 4 6 1029.9 1029.9 0.0
05/02:30am 9.6 7.4 7.9 89 0.8 SE 9 17 5 9 1030.3 1030.3 0.0
05/02:00am 9.8 6.7 7.1 83 1.3 SE 13 17 7 9 1030.4 1030.4 0.0
05/01:30am 10.1 7.3 7.0 81 1.5 ESE 11 17 6 9 1030.5 1030.5 0.0
05/01:00am 10.1 7.2 6.3 77 1.7 SE 11 15 6 8 1030.6 1030.6 0.0
05/12:30am 10.4 7.4 6.2 75 2.0 SE 11 13 6 7 1030.7 1030.7 0.0
05/12:00am 10.8 8.6 6.4 74 2.0 SSE 7 17 4 9 1030.9 1030.9 0.0
 
Date/Time
WST
Temp
°C
App
Temp
°C
Dew
Point
Rel
Hum
%
Delta-T
°C
Wind Press
QNH
hPa
Press
MSL
hPa
Rain
since 9 am
mm
Dir
 
Spd
km/h
Gust
km/h
Spd
kts
Gust
kts
04/11:30pm 10.8 8.6 6.0 72 2.2 SE 7 9 4 5 1031.1 1031.1 0.0
04/11:00pm 10.9 8.7 6.1 72 2.2 SE 7 11 4 6 1031.3 1031.3 0.0
04/10:30pm 10.6 8.4 6.0 73 2.1 ESE 7 9 4 5 1031.3 1031.3 0.0
04/10:00pm 10.9 8.7 6.1 72 2.2 ESE 7 9 4 5 1031.7 1031.7 0.0
04/09:30pm 11.4 9.2 6.1 70 2.5 ESE 7 11 4 6 1031.7 1031.7 0.0
04/09:00pm 11.9 9.8 6.6 70 2.5 ESE 7 9 4 5 1031.8 1031.8 0.0
04/08:30pm 12.1 10.2 6.6 69 2.6 ESE 6 9 3 5 1031.7 1031.7 0.0
04/08:00pm 12.7 10.9 7.2 69 2.6 ESE 6 7 3 4 1031.7 1031.7 0.0
04/07:30pm 13.3 11.8 6.6 64 3.2 ENE 4 6 2 3 1031.5 1031.5 0.0
04/07:00pm 14.0 12.0 6.1 59 3.7 ENE 6 7 3 4 1031.4 1031.4 0.0
04/06:30pm 14.9 13.0 6.7 58 4.0 ENE 6 7 3 4 1031.2 1031.2 0.0
04/06:00pm 15.6 13.6 6.1 53 4.5 E 6 9 3 5 1030.9 1030.9 0.0
04/05:30pm 16.8 14.1 5.7 48 5.4 E 9 15 5 8 1030.6 1030.6 0.0
04/05:00pm 18.0 15.7 5.6 44 6.0 ENE 7 13 4 7 1030.5 1030.5 0.0
04/04:30pm 18.2 15.8 5.4 43 6.2 E 7 9 4 5 1030.4 1030.4 0.0
04/04:00pm 18.6 16.3 5.8 43 6.2 ESE 7 11 4 6 1030.4 1030.4 0.0
04/03:30pm 18.9 16.5 5.4 41 6.6 E 7 15 4 8 1030.4 1030.4 0.0
04/03:00pm 19.2 16.3 4.9 39 6.9 ESE 9 17 5 9 1030.6 1030.6 0.0
04/02:30pm 19.5 16.4 5.6 40 6.8 ESE 11 22 6 12 1030.6 1030.6 0.0
04/02:00pm 19.5 16.7 5.2 39 6.9 E 9 20 5 11 1030.8 1030.8 0.0
04/01:30pm 19.5 15.9 5.2 39 7.0 E 13 20 7 11 1031.2 1031.2 0.0
04/01:00pm 18.1 15.3 5.3 43 6.1 ESE 9 13 5 7 1031.6 1031.6 0.0
04/12:30pm 17.8 14.9 6.3 47 5.7 ESE 11 19 6 10 1032.1 1032.1 0.0
04/12:00pm 18.3 15.3 6.2 45 5.9 E 11 17 6 9 1032.8 1032.8 0.0
04/11:30am 17.5 14.0 5.4 45 5.8 ENE 13 20 7 11 1033.3 1033.3 0.0
04/11:00am 17.1 14.7 6.9 51 5.0 E 9 13 5 7 1033.8 1033.8 0.0
04/10:30am 15.4 13.0 7.2 58 4.0 E 9 15 5 8 1034.1 1034.1 0.0
04/10:00am 13.9 11.5 7.0 63 3.3 ESE 9 13 5 7 1034.4 1034.4 0.0
04/09:30am 12.1 9.2 6.4 68 2.7 ESE 11 17 6 9 1034.3 1034.3 0.0
04/09:00am 10.7 7.8 6.5 75 1.9 ESE 11 19 6 10 1034.3 1034.3 0.0
04/08:30am 9.2 7.0 6.3 82 1.3 ESE 7 11 4 6 1034.1 1034.1 0.0
04/08:00am 9.0 6.4 6.1 82 1.3 ESE 9 11 5 6 1033.8 1033.8 0.0
04/07:30am 9.4 7.1 5.9 79 1.6 SE 7 11 4 6 1033.8 1033.8 0.0
04/07:00am 9.4 7.3 6.7 83 1.2 SSE 7 9 4 5 1033.6 1033.6 0.0
04/06:30am 9.9 7.9 7.2 83 1.3 SSE 7 11 4 6 1033.4 1033.4 0.0
04/06:00am 10.0 7.6 7.1 82 1.4 SSE 9 13 5 7 1033.2 1033.2 0.0
04/05:30am 10.1 7.7 7.0 81 1.5 SSE 9 13 5 7 1033.1 1033.1 0.0
04/05:00am 10.3 7.9 6.8 79 1.6 SSE 9 13 5 7 1033.1 1033.1 0.0
04/04:30am 10.4 7.9 6.4 76 1.9 SSE 9 13 5 7 1033.0 1033.0 0.0
04/04:00am 10.6 8.1 6.4 75 1.9 SE 9 15 5 8 1032.9 1032.9 0.0
04/03:30am 10.7 8.2 6.5 75 2.0 SE 9 13 5 7 1032.8 1032.8 0.0
04/03:00am 10.9 8.0 6.5 74 2.0 SE 11 13 6 7 1032.9 1032.9 0.0
04/02:30am 11.1 8.2 6.6 74 2.1 SE 11 13 6 7 1032.8 1032.8 0.0
04/02:00am 11.3 8.4 6.4 72 2.3 SE 11 15 6 8 1033.0 1033.0 0.0
04/01:30am 10.9 8.9 7.0 77 1.9 SE 7 11 4 6 1033.0 1033.0 0.0
04/01:00am 10.8 8.8 7.1 78 1.7 ESE 7 9 4 5 1032.9 1032.9 0.0
04/12:30am 10.9 8.9 7.2 78 1.8 ESE 7 9 4 5 1033.2 1033.2 0.0
04/12:00am 10.9 9.0 7.4 79 1.7 ESE 7 11 4 6 1033.3 1033.3 0.0
 
Date/Time
WST
Temp
°C
App
Temp
°C
Dew
Point
Rel
Hum
%
Delta-T
°C
Wind Press
QNH
hPa
Press
MSL
hPa
Rain
since 9 am
mm
Dir
 
Spd
km/h
Gust
km/h
Spd
kts
Gust
kts
03/11:30pm 11.2 9.3 7.5 78 1.8 SE 7 9 4 5 1033.4 1033.4 0.0
03/11:00pm 11.5 9.8 7.4 76 2.0 SE 6 7 3 4 1033.6 1033.6 0.0
03/10:30pm 11.9 10.2 7.4 74 2.2 SE 6 7 3 4 1033.6 1033.6 0.0
03/10:00pm 12.6 10.8 7.9 73 2.3 SE 7 9 4 5 1033.8 1033.8 0.0
03/09:30pm 13.1 11.3 8.0 71 2.5 SSE 7 11 4 6 1034.0 1034.0 0.0
03/09:00pm 13.1 11.5 7.8 70 2.6 SSE 6 7 3 4 1034.0 1034.0 0.0
03/08:30pm 13.2 11.5 7.6 69 2.7 SE 6 9 3 5 1033.4 1033.4 0.0
03/08:00pm 13.8 11.9 7.6 66 3.0 SE 7 9 4 5 1033.4 1033.4 0.0
03/07:30pm 14.2 12.3 7.7 65 3.2 SE 7 9 4 5 1033.1 1033.1 0.0
03/07:00pm 14.4 13.0 9.6 73 2.4 SSE 7 11 4 6 1033.1 1033.1 0.0
03/06:30pm 14.7 13.3 9.7 72 2.6 SSE 7 9 4 5 1033.0 1033.0 0.0
03/06:00pm 15.0 13.6 9.4 69 2.9 SSE 7 13 4 7 1032.6 1032.6 0.0
03/05:30pm 15.2 13.0 9.3 68 3.0 S 11 15 6 8 1032.5 1032.5 0.0
03/05:00pm 15.6 13.2 8.6 63 3.5 SSW 11 20 6 11 1032.3 1032.3 0.0
03/04:30pm 16.1 13.4 8.8 62 3.7 SSW 13 17 7 9 1032.3 1032.3 0.0
03/04:00pm 16.9 14.2 7.3 53 4.8 S 11 15 6 8 1032.5 1032.5 0.0
03/03:30pm 16.8 14.1 7.4 54 4.7 S 11 15 6 8 1032.6 1032.6 0.0
03/03:00pm 17.0 14.2 7.1 52 4.9 S 11 17 6 9 1032.7 1032.7 0.0
03/02:30pm 17.1 14.3 6.9 51 5.1 SSE 11 15 6 8 1032.7 1032.7 0.0
03/02:00pm 17.9 15.9 7.3 50 5.3 SSE 7 11 4 6 1032.8 1032.8 0.0
03/01:30pm 18.7 16.9 7.2 47 5.8 NE 6 9 3 5 1033.1 1033.1 0.0
03/01:00pm 17.8 15.6 6.3 47 5.6 SE 7 13 4 7 1033.6 1033.6 0.0
03/12:30pm 18.0 15.9 6.5 47 5.7 NE 7 13 4 7 1033.8 1033.8 0.0
03/12:00pm 18.2 16.2 7.0 48 5.6 E 7 15 4 8 1034.5 1034.5 0.0
03/11:30am 17.4 15.5 7.7 53 4.9 ENE 7 11 4 6 1034.9 1034.9 0.0
03/11:00am 16.4 14.4 7.3 55 4.5 ENE 7 15 4 8 1035.5 1035.5 0.0
03/10:30am 15.4 12.4 7.7 60 3.8 E 13 20 7 11 1035.7 1035.7 0.0
03/10:00am 13.8 11.1 7.3 65 3.1 ESE 11 15 6 8 1035.9 1035.9 0.0
03/09:30am 12.4 10.4 6.9 69 2.6 ESE 7 13 4 7 1035.8 1035.8 0.0
03/09:00am 10.8 8.8 6.4 74 2.0 ESE 6 9 3 5 1035.7 1035.7 0.0
03/08:30am 9.6 7.4 6.1 79 1.6 SE 7 9 4 5 1035.7 1035.7 0.0
03/08:00am 8.9 6.7 6.3 84 1.2 SE 7 9 4 5 1035.5 1035.5 0.0
03/07:30am 8.5 5.9 6.1 85 1.1 SE 9 13 5 7 1035.1 1035.1 0.0
03/07:00am 8.6 5.6 6.1 84 1.1 SE 11 15 6 8 1034.8 1034.8 0.0
03/06:30am 8.9 6.3 6.3 84 1.2 SE 9 15 5 8 1034.4 1034.4 0.0
03/06:00am 9.0 6.1 6.3 83 1.2 SE 11 13 6 7 1034.1 1034.1 0.0
03/05:30am 9.1 6.2 6.5 84 1.2 SE 11 17 6 9 1034.3 1034.3 0.0
03/05:00am 8.8 6.3 6.4 85 1.1 SE 9 13 5 7 1034.3 1034.3 0.0
03/04:30am 8.4 5.8 5.9 84 1.1 SE 9 11 5 6 1034.1 1034.1 0.0
03/04:00am 8.8 6.2 5.9 82 1.3 SE 9 11 5 6 1034.1 1034.1 0.0
03/03:30am 9.3 7.0 5.9 79 1.6 SE 7 11 4 6 1034.4 1034.4 0.0
03/03:00am 9.6 8.3 7.7 88 0.9 SE 4 9 2 5 1034.6 1034.6 0.0
03/02:30am 9.8 8.6 8.1 89 0.8 SE 4 6 2 3 1034.7 1034.7 0.0
03/02:00am 9.8 8.5 7.6 86 1.0 SE 4 4 2 2 1034.9 1034.9 0.0
03/01:30am 9.9 8.6 7.5 85 1.1 SE 4 4 2 2 1034.6 1034.6 0.0
03/01:00am 10.0 8.9 6.9 81 1.4 SE 2 2 1 1 1034.4 1034.4 0.0
03/12:30am 10.3 9.1 6.6 78 1.7 SE 2 4 1 2 1034.1 1034.1 0.0
03/12:00am 10.3 8.6 5.7 73 2.1 SE 4 6 2 3 1034.1 1034.1 0.0
 
Date/Time
WST
Temp
°C
App
Temp
°C
Dew
Point
Rel
Hum
%
Delta-T
°C
Wind Press
QNH
hPa
Press
MSL
hPa
Rain
since 9 am
mm
Dir
 
Spd
km/h
Gust
km/h
Spd
kts
Gust
kts
02/11:30pm 10.4 8.3 5.6 72 2.2 SE 6 7 3 4 1034.3 1034.3 0.0
02/11:00pm 10.6 8.4 5.4 70 2.4 ESE 6 7 3 4 1034.4 1034.4 0.0
02/10:30pm 11.1 8.7 5.4 68 2.6 ESE 7 11 4 6 1034.2 1034.2 0.0
02/10:00pm 11.5 8.4 5.6 67 2.7 ESE 11 15 6 8 1034.5 1034.5 0.0
02/09:30pm 11.8 9.2 5.9 67 2.8 SE 9 15 5 8 1034.6 1034.6 0.0
02/09:00pm 12.2 8.8 5.8 65 3.0 SE 13 19 7 10 1034.6 1034.6 0.0
02/08:30pm 12.6 9.2 6.0 64 3.1 SE 13 19 7 10 1034.5 1034.5 0.0
02/08:00pm 12.9 9.5 6.0 63 3.2 SE 13 19 7 10 1034.4 1034.4 0.0
02/07:30pm 13.2 9.9 6.3 63 3.3 SE 13 19 7 10 1034.2 1034.2 0.0
02/07:00pm 13.8 10.8 6.2 60 3.6 SE 11 15 6 8 1034.0 1034.0 0.0
02/06:30pm 14.4 11.5 6.3 58 3.9 SE 11 15 6 8 1033.6 1033.6 0.0
02/06:00pm 15.0 12.4 6.0 55 4.3 SE 9 15 5 8 1033.3 1033.3 0.0
02/05:30pm 15.8 13.1 5.7 51 4.8 SE 9 15 5 8 1033.0 1033.0 0.0
02/05:00pm 16.4 13.8 6.0 50 5.0 ESE 9 13 5 7 1032.6 1032.6 0.0
02/04:30pm 16.6 14.0 5.9 49 5.2 SSE 9 15 5 8 1032.3 1032.3 0.0

Other Formats:

Comma delimited format used in spreadsheet applications
http://www.bom.gov.au/fwo/IDW60801/IDW60801.94605.axf

JavaScript Object Notation format (JSON) in row-major order
http://www.bom.gov.au/fwo/IDW60801/IDW60801.94605.json